PAPH Airport Information

Runway Information
Runway 05 Length 5000 ft width 100 ft
Elevation 90 ft Threshold 0 ft Heading 70
Runway 23 Length 5000 ft Width 100 ft
Elevation 95 ft Threshold 0 ft Heading 250
Runway 13 Length 4000 ft width 100 ft
Elevation 76 ft Threshold 0 ft Heading 147
Runway 31 Length 4000 ft Width 100 ft
Elevation 83 ft Threshold 0 ft Heading 327
Airport Frequencies
Type AWOS Name AWOS 3 Frequency 135.4 MHZ
Type CNTR Name ANCHORAGE Frequency 132.9 MHZ
Type CTAF Name CTAF Frequency 122.8 MHZ
Type FSS Name KENAI RDO Frequency 122 MHZ
Airport Navaids
Airport Weather Information & NOTAM
ADDS - METARS form results

(1957 UTC 18 January 2019)
Data provider http://aviationweather.gov/metar/data/
 
METAR text: PAPH 181956Z AUTO 03016KT 10SM FEW017 M02/M03 A2974 RMK AO2 SLP073 T10221033 FZRANO
Conditions at: PAPH (PORT HEIDEN , AK, US) observed 1956 UTC 18 January 2019
Temperature: -2.2°C (28°F)
Dewpoint: -3.3°C (26°F) [RH = 92%]
Pressure (altimeter): 29.74 inches Hg (1007.2 mb)
[Sea-level pressure: 1007.3 mb]
Winds: from the NNE (30 degrees) at 18 MPH (16 knots; 8.2 m/s)
Visibility: 10 or more miles (16+ km)
Ceiling: at least 12,000 feet AGL
Clouds: few clouds at 1700 feet AGL
Weather: automated observation with no human augmentation;
there may or may not be significant weather present at this time

METAR text: PAPH 181916Z AUTO 03012KT 10SM FEW012 M03/M04 A2973 RMK AO2 FZRANO
Conditions at: PAPH (PORT HEIDEN , AK, US) observed 1916 UTC 18 January 2019
Temperature: -3.0°C (27°F)
Dewpoint: -4.0°C (25°F) [RH = 93%]
Pressure (altimeter): 29.73 inches Hg (1006.9 mb)
Winds: from the NNE (30 degrees) at 14 MPH (12 knots; 6.2 m/s)
Visibility: 10 or more miles (16+ km)
Ceiling: at least 12,000 feet AGL
Clouds: few clouds at 1200 feet AGL
Weather: automated observation with no human augmentation;
there may or may not be significant weather present at this time